This is the latest recevied weather packets stored in our database for station/object AG1T-20. If no packets are shown the sender has not sent any weather packets the latest 10 day(s).
| Time | Temp. | Humidity | Pressure | Rain* | Wind** | Luminosity | Snow |
|---|---|---|---|---|---|---|---|
| 1787900405 | 21.11° C | 54% | 1020.4 hPa | 0 mm | - | 0 W/m² | - |
| 1787899805 | 22.22° C | 49% | 1021.1 hPa | 0 mm | - | 0 W/m² | - |
| 1787899205 | 23.89° C | 40% | 1021.1 hPa | 0 mm | - | 0 W/m² | - |
| 1787898605 | 24.44° C | 37% | 1021.1 hPa | 0 mm | - | 0 W/m² | - |
| 1787898005 | 24.44° C | 39% | 1021.1 hPa | 0 mm | - | 0 W/m² | - |
| 1787897405 | 23.89° C | 40% | 1021.1 hPa | 0 mm | - | 0 W/m² | - |
| 1787896812 | 24.44° C | 41% | 1021.1 hPa | 0 mm | - | 0 W/m² | - |
| 1787896205 | 24.44° C | 40% | 1022.2 hPa | 0 mm | - | 0 W/m² | - |
| 1787895605 | 24.44° C | 41% | 1022.2 hPa | 0 mm | - | 0 W/m² | - |
| 1787895005 | 24.44° C | 41% | 1022.2 hPa | 0 mm | - | 0 W/m² | - |
| 1787894412 | 25° C | 40% | 1022.2 hPa | 0 mm | - | 0 W/m² | - |
| 1787893805 | 24.44° C | 42% | 1022.2 hPa | 0 mm | - | 0 W/m² | - |
| 1787893205 | 24.44° C | 42% | 1022.2 hPa | 0 mm | - | 0 W/m² | - |
| 1787892605 | 25° C | 40% | 1020.8 hPa | 0 mm | - | 0 W/m² | - |
| 1787892005 | 25° C | 38% | 1020.8 hPa | 0 mm | - | 0 W/m² | - |
| 1787891405 | 25° C | 39% | 1020.8 hPa | 0 mm | - | 0 W/m² | - |
| 1787890805 | 25.56° C | 36% | 1020.8 hPa | 0 mm | - | 0 W/m² | - |
| 1787890209 | 26.11° C | 34% | 1020.8 hPa | 0 mm | - | 0 W/m² | - |
| 1787889605 | 26.11° C | 35% | 1020.8 hPa | 0 mm | - | 0 W/m² | - |
| 1787889004 | 26.11° C | 33% | 1019.6 hPa | 0 mm | - | 0 W/m² | - |
| 1787888405 | 26.67° C | 32% | 1019.6 hPa | 0 mm | - | 0 W/m² | - |
| 1787887805 | 27.22° C | 31% | 1019.6 hPa | 0 mm | - | 0 W/m² | - |
| 1787887205 | 27.22° C | 31% | 1019.6 hPa | 0 mm | - | 0 W/m² | - |
| 1787886605 | 27.22° C | 31% | 1019.6 hPa | 0 mm | - | 0 W/m² | - |
| 1787886012 | 27.22° C | 31% | 1019.6 hPa | 0 mm | - | 0 W/m² | - |
* Rain latest hour (hover to see other rain measurements)
** Current wind speed in m/s (hover to see current wind gust speed)